createdAt,value
2023-04-15T00:02:26.468Z,8.07
2023-04-15T00:07:29.571Z,8.09
2023-04-15T00:12:31.406Z,8.05
2023-04-15T00:17:33.254Z,8.07
2023-04-15T00:22:35.412Z,8.06
2023-04-15T00:27:37.854Z,8.06
2023-04-15T00:32:39.631Z,8.06
2023-04-15T00:37:41.551Z,8.04
2023-04-15T00:42:43.331Z,8.04
2023-04-15T00:47:45.693Z,8.01
2023-04-15T00:52:47.466Z,8.01
2023-04-15T00:57:49.895Z,8.02
2023-04-15T01:02:51.766Z,8.03
2023-04-15T01:07:53.564Z,8.03
2023-04-15T01:12:55.600Z,8.00
2023-04-15T01:17:59.874Z,8.01
2023-04-15T01:23:02.173Z,8.00
2023-04-15T01:28:04.940Z,7.99
2023-04-15T01:33:07.293Z,7.99
2023-04-15T01:38:11.335Z,8.01
2023-04-15T01:43:13.109Z,7.99
2023-04-15T01:48:14.894Z,7.98
2023-04-15T01:53:16.800Z,7.97
2023-04-15T01:58:19.548Z,8.00
2023-04-15T02:03:21.755Z,7.99
2023-04-15T02:08:23.667Z,8.00
2023-04-15T02:13:25.435Z,7.99
2023-04-15T02:18:27.394Z,7.99
2023-04-15T02:23:29.133Z,7.99
2023-04-15T02:28:30.923Z,8.03
2023-04-15T02:33:32.866Z,8.04
2023-04-15T02:38:34.661Z,8.06
2023-04-15T02:43:36.475Z,8.09
2023-04-15T02:48:38.295Z,8.09
2023-04-15T02:53:41.489Z,8.07
2023-04-15T02:58:50.486Z,8.11
2023-04-15T03:03:52.330Z,8.11
2023-04-15T03:08:54.118Z,8.12
2023-04-15T03:13:56.034Z,8.13
2023-04-15T03:18:57.793Z,8.16
2023-04-15T03:23:59.547Z,8.19
2023-04-15T03:29:01.762Z,8.22
2023-04-15T03:34:03.641Z,8.20
2023-04-15T03:39:05.506Z,8.24
2023-04-15T03:44:07.316Z,8.25
2023-04-15T03:49:09.198Z,8.26
2023-04-15T03:54:11.719Z,8.26
2023-04-15T03:59:13.528Z,8.27
2023-04-15T04:04:15.621Z,8.28
2023-04-15T04:09:17.409Z,8.31
2023-04-15T04:14:19.118Z,8.30
2023-04-15T04:19:20.917Z,8.31
2023-04-15T04:24:22.837Z,8.32
2023-04-15T04:29:25.719Z,8.35
2023-04-15T04:34:27.507Z,8.37
2023-04-15T04:39:29.335Z,8.38
2023-04-15T04:44:31.105Z,8.37
2023-04-15T04:49:33.068Z,8.39
2023-04-15T04:54:34.934Z,8.43
2023-04-15T04:59:36.840Z,8.47
2023-04-15T05:04:38.661Z,8.50
2023-04-15T05:09:40.876Z,8.51
2023-04-15T05:14:42.993Z,8.53
2023-04-15T05:19:44.808Z,8.56
2023-04-15T05:24:46.558Z,8.59
2023-04-15T05:29:48.664Z,8.61
2023-04-15T05:34:50.545Z,8.64
2023-04-15T05:39:52.482Z,8.69
2023-04-15T05:44:54.330Z,8.73
2023-04-15T05:49:56.338Z,8.75
2023-04-15T05:54:58.334Z,8.78
2023-04-15T06:00:00.108Z,8.84
2023-04-15T06:05:02.318Z,8.92
2023-04-15T06:10:05.949Z,9.02
2023-04-15T06:15:10.357Z,9.13
2023-04-15T06:20:12.855Z,9.19
2023-04-15T06:25:14.735Z,9.22
2023-04-15T06:30:16.976Z,9.26
2023-04-15T06:35:19.000Z,9.34
2023-04-15T06:40:20.926Z,9.40
2023-04-15T06:45:22.817Z,9.48
2023-04-15T06:50:24.797Z,9.55
2023-04-15T06:55:26.638Z,9.66
2023-04-15T07:00:28.757Z,9.82
2023-04-15T07:05:32.378Z,9.99
2023-04-15T07:10:34.818Z,10.33
2023-04-15T07:15:36.686Z,10.63
2023-04-15T07:20:39.073Z,10.59
2023-04-15T07:25:41.109Z,10.47
2023-04-15T07:30:42.971Z,10.38
2023-04-15T07:35:45.269Z,10.28
2023-04-15T07:40:48.347Z,10.25
2023-04-15T07:45:50.195Z,10.16
2023-04-15T07:50:51.961Z,10.08
2023-04-15T07:55:54.138Z,10.00
2023-04-15T08:00:56.012Z,9.99
2023-04-15T08:05:58.218Z,9.96
2023-04-15T08:11:00.160Z,9.95
2023-04-15T08:16:27.813Z,9.97
2023-04-15T08:21:30.911Z,9.97
2023-04-15T08:26:32.848Z,9.95
2023-04-15T08:31:35.032Z,9.93
2023-04-15T08:36:36.811Z,9.96
2023-04-15T08:42:12.650Z,9.97
2023-04-15T08:47:20.455Z,9.96
2023-04-15T08:52:22.597Z,10.00
2023-04-15T08:57:28.826Z,9.99
2023-04-15T09:02:31.799Z,9.98
2023-04-15T09:07:36.762Z,9.97
2023-04-15T09:12:38.649Z,9.96
2023-04-15T09:17:45.664Z,9.98
2023-04-15T09:22:50.463Z,9.98
2023-04-15T09:28:01.750Z,10.02
2023-04-15T09:33:09.002Z,10.05
2023-04-15T09:38:11.238Z,10.07
2023-04-15T09:43:13.608Z,10.12
2023-04-15T09:48:33.602Z,10.18
2023-04-15T09:53:38.336Z,10.23
2023-04-15T09:58:41.605Z,10.24
2023-04-15T10:03:45.701Z,10.23
2023-04-15T10:08:48.324Z,10.21
2023-04-15T10:13:52.245Z,10.22
2023-04-15T10:19:01.294Z,10.24
2023-04-15T10:24:04.938Z,10.21
2023-04-15T10:29:08.170Z,10.21
2023-04-15T10:34:11.246Z,10.20
2023-04-15T10:39:34.868Z,10.18
2023-04-15T10:44:41.828Z,10.17
2023-04-15T10:49:59.152Z,10.19
2023-04-15T10:55:20.855Z,10.21
2023-04-15T11:00:29.532Z,10.28
2023-04-15T11:05:51.099Z,10.32
2023-04-15T11:10:54.252Z,10.36
2023-04-15T11:15:58.625Z,10.35
2023-04-15T11:21:07.496Z,10.38
2023-04-15T11:26:12.344Z,10.35
2023-04-15T11:31:19.847Z,10.30
2023-04-15T11:36:23.913Z,10.27
2023-04-15T11:41:26.047Z,10.26
2023-04-15T11:46:31.877Z,10.24
2023-04-15T11:51:35.969Z,10.26
2023-04-15T11:56:38.238Z,10.27
2023-04-15T12:01:43.777Z,10.29
2023-04-15T12:06:46.422Z,10.28
2023-04-15T12:11:55.281Z,10.30
2023-04-15T12:17:07.019Z,10.33
2023-04-15T12:22:16.303Z,10.32
2023-04-15T12:27:18.170Z,10.26
2023-04-15T12:32:20.978Z,10.30
2023-04-15T12:37:23.185Z,10.39
2023-04-15T12:42:25.151Z,10.46
2023-04-15T12:47:27.011Z,10.53
2023-04-15T12:52:28.779Z,10.53
2023-04-15T12:57:30.619Z,10.51
2023-04-15T13:02:32.579Z,10.50
2023-04-15T13:07:34.473Z,10.48
2023-04-15T13:12:37.064Z,10.50
2023-04-15T13:17:39.010Z,10.51
2023-04-15T13:22:41.354Z,10.52
2023-04-15T13:27:43.625Z,10.51
2023-04-15T13:32:45.624Z,10.56
2023-04-15T13:37:47.976Z,10.56
2023-04-15T13:42:51.967Z,10.50
2023-04-15T13:47:54.653Z,10.48
2023-04-15T13:52:56.758Z,10.41
2023-04-15T13:57:58.841Z,10.34
2023-04-15T14:03:00.755Z,10.36
2023-04-15T14:08:02.795Z,10.37
2023-04-15T14:13:04.597Z,10.40
2023-04-15T14:18:06.554Z,10.39
2023-04-15T14:23:08.506Z,10.31
2023-04-15T14:28:10.706Z,10.40
2023-04-15T14:33:12.945Z,10.40
2023-04-15T14:38:14.752Z,10.38
2023-04-15T14:43:17.045Z,10.41
2023-04-15T14:48:18.846Z,10.33
2023-04-15T14:53:20.658Z,10.29
2023-04-15T14:58:22.479Z,10.35
2023-04-15T15:03:24.377Z,10.37
2023-04-15T15:08:26.313Z,10.37
2023-04-15T15:13:28.139Z,10.32
2023-04-15T15:18:30.490Z,10.33
2023-04-15T15:23:32.326Z,10.33
2023-04-15T15:28:34.901Z,10.35
2023-04-15T15:33:36.646Z,10.35
2023-04-15T15:38:40.099Z,10.37
2023-04-15T15:43:41.819Z,10.36
2023-04-15T15:48:44.489Z,10.34
2023-04-15T15:53:46.489Z,10.33
2023-04-15T15:58:48.229Z,10.29
2023-04-15T16:03:50.167Z,10.28
2023-04-15T16:08:51.963Z,10.24
2023-04-15T16:13:53.986Z,10.24
2023-04-15T16:18:57.473Z,10.22
2023-04-15T16:23:59.290Z,10.21
2023-04-15T16:29:01.849Z,10.22
2023-04-15T16:34:03.780Z,10.19
2023-04-15T16:39:05.909Z,10.19
2023-04-15T16:44:08.983Z,10.16
2023-04-15T16:49:11.430Z,10.16
2023-04-15T16:54:13.418Z,10.17
2023-04-15T16:59:15.205Z,10.15
2023-04-15T17:04:17.057Z,10.16
2023-04-15T17:09:18.885Z,10.16
2023-04-15T17:14:20.666Z,10.15
2023-04-15T17:19:22.436Z,10.15
2023-04-15T17:24:24.716Z,10.18
2023-04-15T17:29:26.986Z,10.18
2023-04-15T17:34:49.743Z,10.19
2023-04-15T17:39:50.951Z,10.21
2023-04-15T17:44:55.383Z,10.18
2023-04-15T17:49:57.188Z,10.16
2023-04-15T17:54:58.996Z,10.15
2023-04-15T18:00:00.863Z,10.17
2023-04-15T18:05:02.838Z,10.18
2023-04-15T18:10:07.044Z,10.18
2023-04-15T18:15:10.093Z,10.21
2023-04-15T18:20:12.761Z,10.17
2023-04-15T18:25:14.671Z,10.12
2023-04-15T18:30:16.583Z,10.11
2023-04-15T18:35:18.626Z,10.09
2023-04-15T18:40:20.449Z,10.08
2023-04-15T18:45:22.236Z,10.06
2023-04-15T18:50:24.014Z,10.08
2023-04-15T18:55:25.926Z,10.07
2023-04-15T19:00:27.843Z,10.06
2023-04-15T19:05:30.703Z,10.03
2023-04-15T19:10:34.620Z,10.00
2023-04-15T19:15:36.392Z,9.97
2023-04-15T19:20:40.005Z,9.94
2023-04-15T19:25:42.230Z,9.89
2023-04-15T19:30:44.033Z,9.86
2023-04-15T19:35:49.707Z,9.85
2023-04-15T19:40:51.441Z,9.86
2023-04-15T19:45:54.685Z,9.82
2023-04-15T19:50:57.854Z,9.83
2023-04-15T19:55:59.629Z,9.79
2023-04-15T20:01:02.249Z,9.77
2023-04-15T20:06:04.054Z,9.77
2023-04-15T20:11:05.889Z,9.76
2023-04-15T20:16:07.973Z,9.73
2023-04-15T20:21:09.900Z,9.74
2023-04-15T20:26:11.651Z,9.71
2023-04-15T20:31:13.491Z,9.70
2023-04-15T20:36:15.367Z,9.68
2023-04-15T20:41:17.115Z,9.67
2023-04-15T20:46:21.385Z,9.67
2023-04-15T20:51:23.604Z,9.66
2023-04-15T20:56:25.364Z,9.63
2023-04-15T21:01:27.695Z,9.65
2023-04-15T21:06:29.457Z,9.65
2023-04-15T21:11:53.203Z,9.63
2023-04-15T21:16:57.718Z,9.60
2023-04-15T21:21:59.950Z,9.63
2023-04-15T21:27:02.045Z,9.65
2023-04-15T21:32:03.960Z,9.67
2023-04-15T21:37:05.749Z,9.66
2023-04-15T21:42:07.594Z,9.64
2023-04-15T21:47:09.670Z,9.64
2023-04-15T21:52:11.619Z,9.65
2023-04-15T21:57:13.787Z,9.65
2023-04-15T22:02:15.775Z,9.64
2023-04-15T22:07:17.682Z,9.61
2023-04-15T22:12:19.453Z,9.61
2023-04-15T22:17:21.408Z,9.61
2023-04-15T22:22:26.683Z,9.59
2023-04-15T22:27:43.351Z,9.54
2023-04-15T22:32:45.257Z,9.48
2023-04-15T22:37:48.153Z,9.58
2023-04-15T22:42:50.232Z,9.59
2023-04-15T22:47:52.157Z,9.57
2023-04-15T22:52:53.985Z,9.56
2023-04-15T22:57:56.346Z,9.57
2023-04-15T23:02:58.303Z,9.57
2023-04-15T23:08:00.276Z,9.55
2023-04-15T23:13:02.082Z,9.56
2023-04-15T23:18:04.033Z,9.58
2023-04-15T23:23:05.936Z,9.60
2023-04-15T23:28:07.984Z,9.59
2023-04-15T23:33:09.833Z,9.58
2023-04-15T23:38:11.600Z,9.54
2023-04-15T23:43:13.818Z,9.55
2023-04-15T23:48:15.877Z,9.54
2023-04-15T23:53:17.748Z,9.55
2023-04-15T23:58:19.512Z,9.53
